createdAt,value
2022-10-21T00:00:57.629Z,18.50
2022-10-21T00:03:45.205Z,20.83
2022-10-21T00:06:32.611Z,18.63
2022-10-21T00:09:20.076Z,22.77
2022-10-21T00:12:07.631Z,19.43
2022-10-21T00:14:57.186Z,25.17
2022-10-21T00:17:44.611Z,17.83
2022-10-21T00:20:36.059Z,21.87
2022-10-21T00:23:26.764Z,17.57
2022-10-21T00:26:15.206Z,21.47
2022-10-21T00:29:02.697Z,23.03
2022-10-21T00:31:53.821Z,23.40
2022-10-21T00:34:43.225Z,19.77
2022-10-21T00:37:31.992Z,19.83
2022-10-21T00:40:19.112Z,22.87
2022-10-21T00:43:06.681Z,22.43
2022-10-21T00:46:05.689Z,20.93
2022-10-21T00:48:59.093Z,22.80
2022-10-21T00:55:03.739Z,22.53
2022-10-21T00:57:51.804Z,26.20
2022-10-21T01:00:39.748Z,22.50
2022-10-21T01:03:29.622Z,21.10
2022-10-21T01:06:20.464Z,30.30
2022-10-21T01:09:08.481Z,22.70
2022-10-21T01:11:56.920Z,19.43
2022-10-21T01:14:47.197Z,19.17
2022-10-21T01:18:52.250Z,17.63
2022-10-21T01:21:48.754Z,22.10
2022-10-21T01:24:54.756Z,20.67
2022-10-21T01:31:26.873Z,23.77
2022-10-21T01:34:34.361Z,20.50
2022-10-21T01:37:32.316Z,22.20
2022-10-21T01:40:34.460Z,18.37
2022-10-21T01:43:39.064Z,19.97
2022-10-21T01:46:31.391Z,18.60
2022-10-21T01:49:32.700Z,25.40
2022-10-21T01:52:23.697Z,21.20
2022-10-21T01:55:19.229Z,19.63
2022-10-21T02:00:58.491Z,20.20
2022-10-21T02:38:36.334Z,13.73
2022-10-21T02:41:27.118Z,18.63
2022-10-21T02:44:15.027Z,19.63
2022-10-21T02:47:04.174Z,19.00
2022-10-21T02:49:51.786Z,17.03
2022-10-21T02:52:39.279Z,19.33
2022-10-21T02:55:26.709Z,16.50
2022-10-21T03:11:00.727Z,17.07
2022-10-21T03:26:00.206Z,16.27
2022-10-21T03:28:47.770Z,17.00
2022-10-21T03:31:35.235Z,17.60
2022-10-21T03:34:22.503Z,21.17
2022-10-21T03:37:09.953Z,19.63
2022-10-21T03:39:57.353Z,18.20
2022-10-21T03:44:02.070Z,16.77
2022-10-21T03:46:59.003Z,23.27
2022-10-21T03:49:46.441Z,12.80
2022-10-21T03:52:34.043Z,16.80
2022-10-21T03:55:24.172Z,17.67
2022-10-21T03:58:11.868Z,24.13
2022-10-21T04:00:58.952Z,20.50
2022-10-21T04:03:46.063Z,21.40
2022-10-21T04:06:48.189Z,24.40
2022-10-21T04:09:35.924Z,18.73
2022-10-21T04:12:23.669Z,17.13
2022-10-21T04:15:13.701Z,18.30
2022-10-21T04:18:01.118Z,19.90
2022-10-21T04:20:48.568Z,19.83
2022-10-21T04:23:36.408Z,18.33
2022-10-21T04:26:24.062Z,17.07
2022-10-21T04:29:11.524Z,20.27
2022-10-21T04:31:58.705Z,19.90
2022-10-21T04:34:46.106Z,17.63
2022-10-21T04:37:33.753Z,17.87
2022-10-21T04:40:20.875Z,19.67
2022-10-21T04:43:18.753Z,18.73
2022-10-21T04:46:12.155Z,23.80
2022-10-21T04:48:59.788Z,22.90
2022-10-21T04:51:47.416Z,19.40
2022-10-21T04:54:34.923Z,17.93
2022-10-21T04:57:22.415Z,17.93
2022-10-21T05:00:10.687Z,20.23
2022-10-21T05:02:58.936Z,14.97
2022-10-21T05:05:49.850Z,16.03
2022-10-21T05:08:37.450Z,20.23
2022-10-21T05:11:24.972Z,18.67
2022-10-21T05:14:12.444Z,20.30
2022-10-21T05:16:59.587Z,15.27
2022-10-21T05:19:47.026Z,23.70
2022-10-21T05:40:52.479Z,18.80
2022-10-21T05:43:40.276Z,19.27
2022-10-21T05:46:27.928Z,23.20
2022-10-21T05:49:15.467Z,17.50
2022-10-21T05:52:03.074Z,17.03
2022-10-21T05:54:50.520Z,22.60
2022-10-21T06:00:41.377Z,21.40
2022-10-21T06:26:16.087Z,22.20
2022-10-21T06:29:03.317Z,20.50
2022-10-21T06:31:50.793Z,18.97
2022-10-21T06:34:39.104Z,17.40
2022-10-21T06:37:27.084Z,18.03
2022-10-21T06:40:14.313Z,19.83
2022-10-21T06:43:01.999Z,21.50
2022-10-21T06:45:49.443Z,17.70
2022-10-21T06:48:37.007Z,14.80
2022-10-21T06:54:28.437Z,19.03
2022-10-21T06:57:15.872Z,16.77
2022-10-21T07:00:05.865Z,18.77
2022-10-21T07:02:53.000Z,21.67
2022-10-21T07:05:40.486Z,18.20
2022-10-21T07:08:47.002Z,18.57
2022-10-21T07:11:37.576Z,15.20
2022-10-21T07:14:25.368Z,15.07
2022-10-21T07:17:12.713Z,15.40
2022-10-21T07:20:00.590Z,19.63
2022-10-21T07:28:50.264Z,14.10
2022-10-21T07:31:38.342Z,12.33
2022-10-21T07:34:26.827Z,15.13
2022-10-21T07:37:14.469Z,13.47
2022-10-21T07:40:01.906Z,15.93
2022-10-21T07:42:49.161Z,15.20
2022-10-21T07:45:42.978Z,18.43
2022-10-21T07:48:30.572Z,14.73
2022-10-21T07:51:21.170Z,14.97
2022-10-21T07:54:09.231Z,11.43
2022-10-21T08:13:21.664Z,14.73
2022-10-21T08:16:08.986Z,10.87
2022-10-21T08:19:01.164Z,12.73
2022-10-21T08:21:49.110Z,25.10
2022-10-21T08:24:39.994Z,12.27
2022-10-21T08:27:30.214Z,12.93
2022-10-21T08:30:17.624Z,12.30
2022-10-21T08:33:05.186Z,14.30
2022-10-21T08:35:52.393Z,15.57
2022-10-21T08:38:39.997Z,10.63
2022-10-21T08:41:30.581Z,15.33
2022-10-21T08:44:26.657Z,14.00
2022-10-21T08:47:20.741Z,11.30
2022-10-21T08:50:38.654Z,9.50
2022-10-21T08:53:40.862Z,14.20
2022-10-21T08:56:31.352Z,13.97
2022-10-21T09:06:22.545Z,11.07
2022-10-21T09:09:34.665Z,15.17
2022-10-21T09:12:44.103Z,12.57
2022-10-21T09:16:09.206Z,14.43
2022-10-21T09:19:06.150Z,11.97
2022-10-21T09:22:35.813Z,13.23
2022-10-21T09:25:29.230Z,11.87
2022-10-21T09:28:16.933Z,11.43
2022-10-21T09:31:12.187Z,10.07
2022-10-21T09:34:06.304Z,10.38
2022-10-21T09:36:55.546Z,14.70
2022-10-21T09:39:48.393Z,9.50
2022-10-21T09:42:46.797Z,10.23
2022-10-21T09:45:36.351Z,13.67
2022-10-21T09:48:31.632Z,12.93
2022-10-21T09:51:33.899Z,10.80
2022-10-21T09:54:26.395Z,12.67
2022-10-21T09:57:31.355Z,10.03
2022-10-21T10:00:18.601Z,15.13
2022-10-21T10:03:05.724Z,9.00
2022-10-21T10:05:53.305Z,14.60
2022-10-21T10:08:44.737Z,11.50
2022-10-21T10:11:32.353Z,11.10
2022-10-21T10:14:30.511Z,14.27
2022-10-21T10:17:24.059Z,13.63
2022-10-21T10:20:18.557Z,11.47
2022-10-21T10:23:09.470Z,10.80
2022-10-21T10:25:57.391Z,12.07
2022-10-21T10:28:51.920Z,10.33
2022-10-21T10:31:39.360Z,9.23
2022-10-21T10:34:37.142Z,12.57
2022-10-21T10:37:27.572Z,12.10
2022-10-21T10:40:24.085Z,8.07
2022-10-21T10:43:11.506Z,9.00
2022-10-21T10:46:02.386Z,13.10
2022-10-21T10:48:51.585Z,8.03
2022-10-21T10:51:40.572Z,11.07
2022-10-21T10:54:28.677Z,11.13
2022-10-21T10:57:29.949Z,15.13
2022-10-21T11:00:28.119Z,9.17
2022-10-21T11:03:26.141Z,8.97
2022-10-21T11:12:30.649Z,13.60
2022-10-21T11:15:18.502Z,9.77
2022-10-21T11:18:29.089Z,8.07
2022-10-21T11:21:43.818Z,10.80
2022-10-21T11:24:43.783Z,10.77
2022-10-21T11:54:24.688Z,7.47
2022-10-21T11:57:23.499Z,8.30
2022-10-21T12:00:17.346Z,10.87
2022-10-21T12:03:10.965Z,11.20
2022-10-21T12:16:23.718Z,15.30
2022-10-21T12:19:22.057Z,8.93
2022-10-21T12:22:14.719Z,12.13
2022-10-21T12:25:14.058Z,12.40
2022-10-21T12:28:39.846Z,10.00
2022-10-21T12:32:17.865Z,12.32
2022-10-21T12:35:26.224Z,7.67
2022-10-21T12:38:41.174Z,9.10
2022-10-21T12:41:38.290Z,7.93
2022-10-21T12:44:29.981Z,7.60
2022-10-21T12:47:43.768Z,7.80
2022-10-21T12:50:44.110Z,11.57
2022-10-21T12:53:55.849Z,9.30
2022-10-21T12:56:48.021Z,10.17
2022-10-21T12:59:49.697Z,9.27
2022-10-21T13:03:13.868Z,8.40
2022-10-21T13:06:05.755Z,7.60
2022-10-21T13:09:02.541Z,8.40
2022-10-21T13:12:45.302Z,8.20
2022-10-21T13:16:58.722Z,9.73
2022-10-21T13:25:37.070Z,8.73
2022-10-21T13:28:30.222Z,8.30
2022-10-21T13:31:22.568Z,8.33
2022-10-21T13:34:28.591Z,7.63
2022-10-21T13:37:25.889Z,5.67
2022-10-21T13:40:37.273Z,9.10
2022-10-21T13:43:36.985Z,16.57
2022-10-21T13:46:44.285Z,9.13
2022-10-21T13:49:35.307Z,7.47
2022-10-21T13:52:30.332Z,6.30
2022-10-21T13:55:27.192Z,10.20
2022-10-21T13:58:22.828Z,10.33
2022-10-21T14:01:21.918Z,4.70
2022-10-21T14:04:20.936Z,7.50
2022-10-21T14:07:20.842Z,6.87
2022-10-21T14:10:15.446Z,7.37
2022-10-21T14:13:05.634Z,7.47
2022-10-21T14:15:53.463Z,11.83
2022-10-21T14:18:46.459Z,6.67
2022-10-21T14:21:44.292Z,16.00
2022-10-21T14:24:46.511Z,8.93
2022-10-21T14:27:38.316Z,6.97
2022-10-21T14:30:45.994Z,7.87
2022-10-21T14:37:43.680Z,5.57
2022-10-21T14:40:59.613Z,8.83
2022-10-21T14:43:55.950Z,8.17
2022-10-21T14:46:51.173Z,7.67
2022-10-21T14:49:47.861Z,5.63
2022-10-21T14:52:43.022Z,10.17
2022-10-21T14:55:34.883Z,6.67
2022-10-21T14:58:35.080Z,6.77
2022-10-21T15:01:25.447Z,6.73
2022-10-21T15:05:04.786Z,4.53
2022-10-21T15:08:13.619Z,5.50
2022-10-21T15:11:12.507Z,7.43
2022-10-21T15:17:55.680Z,5.57
2022-10-21T15:21:32.770Z,3.40
2022-10-21T15:24:33.613Z,5.00
2022-10-21T15:27:36.636Z,3.13
2022-10-21T15:30:37.998Z,7.97
2022-10-21T15:33:28.042Z,8.97
2022-10-21T15:36:16.231Z,4.07
2022-10-21T15:39:09.688Z,6.70
2022-10-21T15:42:05.839Z,4.97
2022-10-21T15:45:01.157Z,8.53
2022-10-21T15:48:01.974Z,7.27
2022-10-21T15:50:49.457Z,4.23
2022-10-21T15:56:59.752Z,3.63
2022-10-21T15:59:54.946Z,5.37
2022-10-21T16:02:43.849Z,5.87
2022-10-21T16:05:38.472Z,8.73
2022-10-21T16:08:28.730Z,7.03
2022-10-21T16:11:40.529Z,4.00
2022-10-21T16:14:31.280Z,5.03
2022-10-21T16:17:19.621Z,6.10
2022-10-21T16:20:22.776Z,5.47
2022-10-21T16:23:14.744Z,4.77
2022-10-21T16:26:02.449Z,8.90
2022-10-21T16:29:04.238Z,6.33
2022-10-21T16:31:57.887Z,8.33
2022-10-21T16:34:49.104Z,6.10
2022-10-21T16:37:41.565Z,5.67
2022-10-21T16:40:37.062Z,5.27
2022-10-21T16:43:39.992Z,4.53
2022-10-21T16:46:59.534Z,7.10
2022-10-21T16:49:59.022Z,5.00
2022-10-21T16:52:46.853Z,7.13
2022-10-21T16:55:36.267Z,4.43
2022-10-21T16:58:34.636Z,7.37
2022-10-21T17:01:27.299Z,6.30
2022-10-21T17:04:18.969Z,7.83
2022-10-21T17:15:17.108Z,8.00
2022-10-21T17:18:15.735Z,6.20
2022-10-21T17:21:09.845Z,4.33
2022-10-21T17:24:14.868Z,5.95
2022-10-21T17:27:31.628Z,8.57
2022-10-21T17:30:22.800Z,8.50
2022-10-21T17:33:14.377Z,7.90
2022-10-21T17:36:11.943Z,6.00
2022-10-21T17:41:54.050Z,6.57
2022-10-21T17:44:42.292Z,9.57
2022-10-21T17:47:39.966Z,7.23
2022-10-21T17:50:30.152Z,9.30
2022-10-21T17:53:48.290Z,6.47
2022-10-21T17:59:53.006Z,6.63
2022-10-21T18:02:54.678Z,3.60
2022-10-21T18:05:49.239Z,3.47
2022-10-21T18:08:38.186Z,5.82
2022-10-21T18:11:27.938Z,5.67
2022-10-21T18:14:18.551Z,9.90
2022-10-21T18:17:16.472Z,4.83
2022-10-21T18:20:40.190Z,9.63
2022-10-21T18:23:27.267Z,5.03
2022-10-21T18:26:20.535Z,11.40
2022-10-21T18:29:19.550Z,5.53
2022-10-21T18:32:14.866Z,6.47
2022-10-21T18:35:08.954Z,7.83
2022-10-21T18:38:12.562Z,7.15
2022-10-21T18:41:28.360Z,8.83
2022-10-21T18:44:18.335Z,6.10
2022-10-21T18:47:14.375Z,6.90
2022-10-21T18:56:21.827Z,5.30
2022-10-21T18:59:14.956Z,8.17
2022-10-21T19:02:14.769Z,4.17
2022-10-21T19:05:10.517Z,7.27
2022-10-21T19:08:01.184Z,4.53
2022-10-21T19:10:51.587Z,7.70
2022-10-21T19:13:46.541Z,6.87
2022-10-21T19:16:34.679Z,5.40
2022-10-21T19:19:27.822Z,8.63
2022-10-21T19:22:18.655Z,5.47
2022-10-21T19:25:23.432Z,6.80
2022-10-21T19:31:49.114Z,3.97
2022-10-21T19:35:05.196Z,5.37
2022-10-21T19:38:26.137Z,3.58
2022-10-21T19:44:38.937Z,3.33
2022-10-21T19:47:39.066Z,4.17
2022-10-21T19:50:30.782Z,4.90
2022-10-21T19:53:52.532Z,5.73
2022-10-21T19:56:42.800Z,6.30
2022-10-21T19:59:33.957Z,5.20
2022-10-21T20:02:29.011Z,6.73
2022-10-21T20:05:20.071Z,5.90
2022-10-21T20:08:19.193Z,7.50
2022-10-21T20:11:11.360Z,3.90
2022-10-21T20:14:24.954Z,5.43
2022-10-21T20:17:23.173Z,4.60
2022-10-21T20:20:33.073Z,9.13
2022-10-21T20:23:39.410Z,5.33
2022-10-21T20:29:40.935Z,5.77
2022-10-21T20:32:44.703Z,4.63
2022-10-21T20:36:00.831Z,3.58
2022-10-21T20:39:26.668Z,4.70
2022-10-21T20:42:14.457Z,4.80
2022-10-21T20:48:12.651Z,3.43
2022-10-21T20:51:06.881Z,6.70
2022-10-21T20:54:00.934Z,5.57
